sensor_id;sensor_type;location;lat;lon;timestamp;P1;durP1;ratioP1;P2;durP2;ratioP2
55065;SDS011;40964;42.114;24.220;2023-06-14T00:02:10;11.07;;;6.53;;
55065;SDS011;40964;42.114;24.220;2023-06-14T00:04:36;9.32;;;6.38;;
55065;SDS011;40964;42.114;24.220;2023-06-14T00:07:02;11.45;;;6.28;;
55065;SDS011;40964;42.114;24.220;2023-06-14T00:09:28;8.90;;;6.25;;
55065;SDS011;40964;42.114;24.220;2023-06-14T00:11:53;11.65;;;6.13;;
55065;SDS011;40964;42.114;24.220;2023-06-14T00:14:19;8.13;;;6.43;;
55065;SDS011;40964;42.114;24.220;2023-06-14T00:16:45;8.10;;;5.75;;
55065;SDS011;40964;42.114;24.220;2023-06-14T00:19:10;8.82;;;5.93;;
55065;SDS011;40964;42.114;24.220;2023-06-14T00:21:36;8.38;;;5.68;;
55065;SDS011;40964;42.114;24.220;2023-06-14T00:24:03;9.02;;;5.55;;
55065;SDS011;40964;42.114;24.220;2023-06-14T00:26:29;12.73;;;6.32;;
55065;SDS011;40964;42.114;24.220;2023-06-14T00:28:54;9.73;;;5.53;;
55065;SDS011;40964;42.114;24.220;2023-06-14T00:31:21;7.07;;;5.78;;
55065;SDS011;40964;42.114;24.220;2023-06-14T00:33:47;11.98;;;5.90;;
55065;SDS011;40964;42.114;24.220;2023-06-14T00:36:13;8.57;;;6.18;;
55065;SDS011;40964;42.114;24.220;2023-06-14T00:38:38;8.73;;;5.75;;
55065;SDS011;40964;42.114;24.220;2023-06-14T00:41:04;12.07;;;6.18;;
55065;SDS011;40964;42.114;24.220;2023-06-14T00:43:30;12.07;;;6.53;;
55065;SDS011;40964;42.114;24.220;2023-06-14T00:45:55;9.55;;;6.60;;
55065;SDS011;40964;42.114;24.220;2023-06-14T00:48:21;10.38;;;6.93;;
55065;SDS011;40964;42.114;24.220;2023-06-14T00:50:47;11.88;;;7.13;;
55065;SDS011;40964;42.114;24.220;2023-06-14T00:53:15;10.80;;;6.05;;
55065;SDS011;40964;42.114;24.220;2023-06-14T00:55:45;9.38;;;6.10;;
55065;SDS011;40964;42.114;24.220;2023-06-14T00:58:12;8.43;;;6.32;;
55065;SDS011;40964;42.114;24.220;2023-06-14T01:00:37;8.23;;;6.07;;
55065;SDS011;40964;42.114;24.220;2023-06-14T01:03:03;8.35;;;5.88;;
55065;SDS011;40964;42.114;24.220;2023-06-14T01:05:28;9.68;;;6.57;;
55065;SDS011;40964;42.114;24.220;2023-06-14T01:13:23;7.97;;;6.55;;
55065;SDS011;40964;42.114;24.220;2023-06-14T01:15:59;12.88;;;6.88;;
55065;SDS011;40964;42.114;24.220;2023-06-14T01:18:25;10.32;;;6.68;;
55065;SDS011;40964;42.114;24.220;2023-06-14T01:20:52;14.07;;;6.53;;
55065;SDS011;40964;42.114;24.220;2023-06-14T01:23:20;11.68;;;6.38;;
55065;SDS011;40964;42.114;24.220;2023-06-14T01:25:47;10.50;;;7.35;;
55065;SDS011;40964;42.114;24.220;2023-06-14T01:28:17;8.15;;;6.43;;
55065;SDS011;40964;42.114;24.220;2023-06-14T01:30:46;9.13;;;6.28;;
55065;SDS011;40964;42.114;24.220;2023-06-14T01:33:24;11.95;;;6.57;;
55065;SDS011;40964;42.114;24.220;2023-06-14T01:35:53;10.00;;;6.28;;
55065;SDS011;40964;42.114;24.220;2023-06-14T01:38:20;7.95;;;6.07;;
55065;SDS011;40964;42.114;24.220;2023-06-14T01:40:48;7.25;;;6.00;;
55065;SDS011;40964;42.114;24.220;2023-06-14T01:43:15;6.53;;;5.40;;
55065;SDS011;40964;42.114;24.220;2023-06-14T01:45:42;8.65;;;6.10;;
55065;SDS011;40964;42.114;24.220;2023-06-14T01:48:09;8.75;;;5.80;;
55065;SDS011;40964;42.114;24.220;2023-06-14T01:50:35;8.75;;;5.85;;
55065;SDS011;40964;42.114;24.220;2023-06-14T01:53:00;10.32;;;5.95;;
55065;SDS011;40964;42.114;24.220;2023-06-14T01:55:26;10.57;;;5.88;;
55065;SDS011;40964;42.114;24.220;2023-06-14T01:57:51;10.38;;;5.40;;
55065;SDS011;40964;42.114;24.220;2023-06-14T02:00:18;10.10;;;5.50;;
55065;SDS011;40964;42.114;24.220;2023-06-14T02:02:44;10.75;;;5.70;;
55065;SDS011;40964;42.114;24.220;2023-06-14T02:05:10;8.90;;;6.05;;
55065;SDS011;40964;42.114;24.220;2023-06-14T02:07:36;6.72;;;5.28;;
55065;SDS011;40964;42.114;24.220;2023-06-14T02:10:03;7.45;;;5.68;;
55065;SDS011;40964;42.114;24.220;2023-06-14T02:12:30;7.85;;;5.88;;
55065;SDS011;40964;42.114;24.220;2023-06-14T02:14:55;9.48;;;5.57;;
55065;SDS011;40964;42.114;24.220;2023-06-14T02:17:21;9.73;;;6.00;;
55065;SDS011;40964;42.114;24.220;2023-06-14T02:19:47;7.95;;;5.80;;
55065;SDS011;40964;42.114;24.220;2023-06-14T02:22:14;12.80;;;6.07;;
55065;SDS011;40964;42.114;24.220;2023-06-14T02:24:40;8.82;;;5.75;;
55065;SDS011;40964;42.114;24.220;2023-06-14T02:27:06;8.20;;;6.07;;
55065;SDS011;40964;42.114;24.220;2023-06-14T02:29:33;8.88;;;6.10;;
55065;SDS011;40964;42.114;24.220;2023-06-14T02:31:59;7.80;;;5.63;;
55065;SDS011;40964;42.114;24.220;2023-06-14T02:34:24;8.45;;;5.78;;
55065;SDS011;40964;42.114;24.220;2023-06-14T02:36:49;9.82;;;6.30;;
55065;SDS011;40964;42.114;24.220;2023-06-14T02:39:15;8.68;;;5.72;;
55065;SDS011;40964;42.114;24.220;2023-06-14T02:41:41;9.32;;;5.88;;
55065;SDS011;40964;42.114;24.220;2023-06-14T02:44:06;8.80;;;6.03;;
55065;SDS011;40964;42.114;24.220;2023-06-14T02:46:32;10.32;;;5.57;;
55065;SDS011;40964;42.114;24.220;2023-06-14T02:48:58;13.90;;;6.65;;
55065;SDS011;40964;42.114;24.220;2023-06-14T02:51:24;9.55;;;6.72;;
55065;SDS011;40964;42.114;24.220;2023-06-14T02:53:49;10.38;;;6.47;;
55065;SDS011;40964;42.114;24.220;2023-06-14T02:56:15;13.45;;;7.30;;
55065;SDS011;40964;42.114;24.220;2023-06-14T02:58:42;11.52;;;7.20;;
55065;SDS011;40964;42.114;24.220;2023-06-14T03:01:08;11.10;;;6.82;;
55065;SDS011;40964;42.114;24.220;2023-06-14T03:03:35;12.57;;;7.32;;
55065;SDS011;40964;42.114;24.220;2023-06-14T03:06:03;8.60;;;6.47;;
55065;SDS011;40964;42.114;24.220;2023-06-14T03:08:32;9.60;;;5.85;;
55065;SDS011;40964;42.114;24.220;2023-06-14T03:11:03;9.65;;;6.03;;
55065;SDS011;40964;42.114;24.220;2023-06-14T03:13:30;16.10;;;6.28;;
55065;SDS011;40964;42.114;24.220;2023-06-14T03:15:57;9.65;;;7.32;;
55065;SDS011;40964;42.114;24.220;2023-06-14T03:18:23;10.32;;;6.75;;
55065;SDS011;40964;42.114;24.220;2023-06-14T03:20:48;10.05;;;6.75;;
55065;SDS011;40964;42.114;24.220;2023-06-14T03:23:14;16.52;;;6.45;;
55065;SDS011;40964;42.114;24.220;2023-06-14T03:25:39;10.35;;;7.38;;
55065;SDS011;40964;42.114;24.220;2023-06-14T03:28:07;11.63;;;7.07;;
55065;SDS011;40964;42.114;24.220;2023-06-14T03:30:33;11.20;;;7.32;;
55065;SDS011;40964;42.114;24.220;2023-06-14T03:32:58;14.00;;;7.88;;
55065;SDS011;40964;42.114;24.220;2023-06-14T03:35:26;10.88;;;7.63;;
55065;SDS011;40964;42.114;24.220;2023-06-14T03:37:52;9.88;;;7.32;;
55065;SDS011;40964;42.114;24.220;2023-06-14T03:40:18;10.65;;;7.60;;
55065;SDS011;40964;42.114;24.220;2023-06-14T03:42:45;12.93;;;7.22;;
55065;SDS011;40964;42.114;24.220;2023-06-14T03:45:10;9.63;;;7.30;;
55065;SDS011;40964;42.114;24.220;2023-06-14T03:47:36;9.38;;;7.00;;
55065;SDS011;40964;42.114;24.220;2023-06-14T03:50:02;11.38;;;7.90;;
55065;SDS011;40964;42.114;24.220;2023-06-14T03:52:28;11.48;;;7.15;;
55065;SDS011;40964;42.114;24.220;2023-06-14T03:54:54;13.02;;;8.05;;
55065;SDS011;40964;42.114;24.220;2023-06-14T03:57:20;15.35;;;7.80;;
55065;SDS011;40964;42.114;24.220;2023-06-14T03:59:46;12.88;;;7.15;;
55065;SDS011;40964;42.114;24.220;2023-06-14T04:02:12;12.27;;;8.23;;
55065;SDS011;40964;42.114;24.220;2023-06-14T04:04:41;12.88;;;7.97;;
55065;SDS011;40964;42.114;24.220;2023-06-14T04:07:09;13.60;;;8.50;;
55065;SDS011;40964;42.114;24.220;2023-06-14T04:09:36;10.32;;;7.50;;
55065;SDS011;40964;42.114;24.220;2023-06-14T04:12:02;9.70;;;7.05;;
55065;SDS011;40964;42.114;24.220;2023-06-14T04:14:28;11.90;;;7.88;;
55065;SDS011;40964;42.114;24.220;2023-06-14T04:16:53;13.43;;;6.80;;
55065;SDS011;40964;42.114;24.220;2023-06-14T04:19:18;12.55;;;7.13;;
55065;SDS011;40964;42.114;24.220;2023-06-14T04:21:44;10.70;;;6.88;;
55065;SDS011;40964;42.114;24.220;2023-06-14T04:24:09;11.43;;;6.80;;
55065;SDS011;40964;42.114;24.220;2023-06-14T04:26:41;12.02;;;7.63;;
55065;SDS011;40964;42.114;24.220;2023-06-14T04:29:12;9.30;;;7.32;;
55065;SDS011;40964;42.114;24.220;2023-06-14T04:31:42;11.95;;;7.53;;
55065;SDS011;40964;42.114;24.220;2023-06-14T04:34:09;12.93;;;7.70;;
55065;SDS011;40964;42.114;24.220;2023-06-14T04:36:41;11.80;;;8.43;;
55065;SDS011;40964;42.114;24.220;2023-06-14T04:39:17;12.15;;;7.95;;
55065;SDS011;40964;42.114;24.220;2023-06-14T04:41:43;12.48;;;8.15;;
55065;SDS011;40964;42.114;24.220;2023-06-14T04:44:09;12.48;;;8.95;;
55065;SDS011;40964;42.114;24.220;2023-06-14T04:46:35;12.07;;;8.32;;
55065;SDS011;40964;42.114;24.220;2023-06-14T04:49:17;16.23;;;8.43;;
55065;SDS011;40964;42.114;24.220;2023-06-14T04:51:43;11.43;;;7.47;;
55065;SDS011;40964;42.114;24.220;2023-06-14T04:54:09;12.85;;;8.13;;
55065;SDS011;40964;42.114;24.220;2023-06-14T04:56:39;9.82;;;7.63;;
55065;SDS011;40964;42.114;24.220;2023-06-14T04:59:05;11.43;;;6.97;;
55065;SDS011;40964;42.114;24.220;2023-06-14T05:01:31;7.85;;;6.28;;
55065;SDS011;40964;42.114;24.220;2023-06-14T05:03:57;9.13;;;6.75;;
55065;SDS011;40964;42.114;24.220;2023-06-14T05:06:23;9.45;;;6.80;;
55065;SDS011;40964;42.114;24.220;2023-06-14T05:08:48;8.85;;;6.82;;
55065;SDS011;40964;42.114;24.220;2023-06-14T05:11:14;12.75;;;7.20;;
55065;SDS011;40964;42.114;24.220;2023-06-14T05:13:42;11.13;;;7.13;;
55065;SDS011;40964;42.114;24.220;2023-06-14T05:16:08;8.70;;;6.93;;
55065;SDS011;40964;42.114;24.220;2023-06-14T05:18:34;12.63;;;7.00;;
55065;SDS011;40964;42.114;24.220;2023-06-14T05:21:00;9.23;;;7.30;;
55065;SDS011;40964;42.114;24.220;2023-06-14T05:23:26;9.45;;;7.43;;
55065;SDS011;40964;42.114;24.220;2023-06-14T05:25:51;13.07;;;7.70;;
55065;SDS011;40964;42.114;24.220;2023-06-14T05:28:17;9.88;;;7.57;;
55065;SDS011;40964;42.114;24.220;2023-06-14T05:30:42;11.90;;;8.07;;
55065;SDS011;40964;42.114;24.220;2023-06-14T05:33:08;12.70;;;7.93;;
55065;SDS011;40964;42.114;24.220;2023-06-14T05:35:34;10.00;;;7.28;;
55065;SDS011;40964;42.114;24.220;2023-06-14T05:38:00;11.85;;;7.93;;
55065;SDS011;40964;42.114;24.220;2023-06-14T05:40:25;10.43;;;7.97;;
55065;SDS011;40964;42.114;24.220;2023-06-14T05:42:50;11.43;;;7.97;;
55065;SDS011;40964;42.114;24.220;2023-06-14T05:45:16;10.30;;;7.55;;
55065;SDS011;40964;42.114;24.220;2023-06-14T05:47:42;11.20;;;7.03;;
55065;SDS011;40964;42.114;24.220;2023-06-14T05:50:07;13.10;;;9.02;;
55065;SDS011;40964;42.114;24.220;2023-06-14T05:52:33;9.20;;;7.47;;
55065;SDS011;40964;42.114;24.220;2023-06-14T05:57:35;11.95;;;8.38;;
55065;SDS011;40964;42.114;24.220;2023-06-14T06:00:00;10.82;;;7.28;;
55065;SDS011;40964;42.114;24.220;2023-06-14T06:02:26;9.75;;;7.55;;
55065;SDS011;40964;42.114;24.220;2023-06-14T06:04:51;8.80;;;7.30;;
55065;SDS011;40964;42.114;24.220;2023-06-14T06:07:16;11.25;;;7.28;;
55065;SDS011;40964;42.114;24.220;2023-06-14T06:09:42;9.70;;;7.05;;
55065;SDS011;40964;42.114;24.220;2023-06-14T06:12:08;12.60;;;7.28;;
55065;SDS011;40964;42.114;24.220;2023-06-14T06:14:33;9.60;;;7.72;;
55065;SDS011;40964;42.114;24.220;2023-06-14T06:16:59;18.83;;;7.63;;
55065;SDS011;40964;42.114;24.220;2023-06-14T06:19:24;11.63;;;7.63;;
55065;SDS011;40964;42.114;24.220;2023-06-14T06:21:50;9.50;;;6.53;;
55065;SDS011;40964;42.114;24.220;2023-06-14T06:24:15;10.45;;;7.45;;
55065;SDS011;40964;42.114;24.220;2023-06-14T06:26:41;16.50;;;6.65;;
55065;SDS011;40964;42.114;24.220;2023-06-14T06:29:06;8.63;;;6.60;;
55065;SDS011;40964;42.114;24.220;2023-06-14T06:31:32;11.10;;;7.30;;
55065;SDS011;40964;42.114;24.220;2023-06-14T06:33:57;8.60;;;6.90;;
55065;SDS011;40964;42.114;24.220;2023-06-14T06:36:23;9.25;;;7.30;;
55065;SDS011;40964;42.114;24.220;2023-06-14T06:38:49;8.60;;;6.65;;
55065;SDS011;40964;42.114;24.220;2023-06-14T06:41:15;9.20;;;7.13;;
55065;SDS011;40964;42.114;24.220;2023-06-14T06:43:40;8.55;;;7.00;;
55065;SDS011;40964;42.114;24.220;2023-06-14T06:46:06;11.45;;;7.63;;
55065;SDS011;40964;42.114;24.220;2023-06-14T06:48:32;9.80;;;6.97;;
55065;SDS011;40964;42.114;24.220;2023-06-14T06:50:57;9.63;;;7.00;;
55065;SDS011;40964;42.114;24.220;2023-06-14T06:53:23;9.38;;;7.30;;
55065;SDS011;40964;42.114;24.220;2023-06-14T06:55:48;9.75;;;7.50;;
55065;SDS011;40964;42.114;24.220;2023-06-14T06:58:13;10.00;;;7.53;;
55065;SDS011;40964;42.114;24.220;2023-06-14T07:00:39;9.63;;;7.60;;
55065;SDS011;40964;42.114;24.220;2023-06-14T07:03:05;10.68;;;7.82;;
55065;SDS011;40964;42.114;24.220;2023-06-14T07:05:30;9.57;;;7.50;;
55065;SDS011;40964;42.114;24.220;2023-06-14T07:07:55;10.52;;;8.02;;
55065;SDS011;40964;42.114;24.220;2023-06-14T07:10:21;11.07;;;7.97;;
55065;SDS011;40964;42.114;24.220;2023-06-14T07:12:46;9.45;;;7.43;;
55065;SDS011;40964;42.114;24.220;2023-06-14T07:15:12;9.73;;;7.70;;
55065;SDS011;40964;42.114;24.220;2023-06-14T07:17:38;10.77;;;8.20;;
55065;SDS011;40964;42.114;24.220;2023-06-14T07:20:03;10.25;;;8.15;;
55065;SDS011;40964;42.114;24.220;2023-06-14T07:22:41;12.90;;;8.45;;
55065;SDS011;40964;42.114;24.220;2023-06-14T07:25:08;12.38;;;8.35;;
55065;SDS011;40964;42.114;24.220;2023-06-14T07:27:35;9.63;;;7.60;;
55065;SDS011;40964;42.114;24.220;2023-06-14T07:30:00;12.45;;;8.90;;
55065;SDS011;40964;42.114;24.220;2023-06-14T07:32:26;14.82;;;8.93;;
55065;SDS011;40964;42.114;24.220;2023-06-14T07:34:51;11.02;;;7.90;;
55065;SDS011;40964;42.114;24.220;2023-06-14T07:37:16;9.00;;;7.22;;
55065;SDS011;40964;42.114;24.220;2023-06-14T07:39:42;10.68;;;8.10;;
55065;SDS011;40964;42.114;24.220;2023-06-14T07:42:07;14.52;;;8.02;;
55065;SDS011;40964;42.114;24.220;2023-06-14T07:44:33;13.10;;;8.40;;
55065;SDS011;40964;42.114;24.220;2023-06-14T07:46:58;10.35;;;7.38;;
55065;SDS011;40964;42.114;24.220;2023-06-14T07:49:25;9.90;;;7.25;;
55065;SDS011;40964;42.114;24.220;2023-06-14T07:51:50;11.40;;;8.02;;
55065;SDS011;40964;42.114;24.220;2023-06-14T07:54:16;10.27;;;8.15;;
55065;SDS011;40964;42.114;24.220;2023-06-14T07:56:42;11.30;;;8.43;;
55065;SDS011;40964;42.114;24.220;2023-06-14T07:59:08;10.05;;;8.18;;
55065;SDS011;40964;42.114;24.220;2023-06-14T08:01:34;9.35;;;7.30;;
55065;SDS011;40964;42.114;24.220;2023-06-14T08:04:00;9.68;;;7.78;;
55065;SDS011;40964;42.114;24.220;2023-06-14T08:06:26;10.30;;;7.93;;
55065;SDS011;40964;42.114;24.220;2023-06-14T08:08:51;10.70;;;7.75;;
55065;SDS011;40964;42.114;24.220;2023-06-14T08:11:17;9.15;;;7.75;;
55065;SDS011;40964;42.114;24.220;2023-06-14T08:13:42;9.70;;;7.43;;
55065;SDS011;40964;42.114;24.220;2023-06-14T08:16:07;9.02;;;7.78;;
55065;SDS011;40964;42.114;24.220;2023-06-14T08:18:33;8.85;;;7.40;;
55065;SDS011;40964;42.114;24.220;2023-06-14T08:20:59;14.57;;;8.32;;
55065;SDS011;40964;42.114;24.220;2023-06-14T08:23:24;9.02;;;7.78;;
55065;SDS011;40964;42.114;24.220;2023-06-14T08:25:49;11.68;;;8.15;;
55065;SDS011;40964;42.114;24.220;2023-06-14T08:28:15;10.70;;;7.53;;
55065;SDS011;40964;42.114;24.220;2023-06-14T08:30:41;14.40;;;8.18;;
55065;SDS011;40964;42.114;24.220;2023-06-14T08:33:07;11.07;;;7.20;;
55065;SDS011;40964;42.114;24.220;2023-06-14T08:35:33;9.43;;;7.30;;
55065;SDS011;40964;42.114;24.220;2023-06-14T08:38:02;9.65;;;7.63;;
55065;SDS011;40964;42.114;24.220;2023-06-14T08:40:28;10.48;;;8.30;;
55065;SDS011;40964;42.114;24.220;2023-06-14T08:42:55;10.93;;;8.15;;
55065;SDS011;40964;42.114;24.220;2023-06-14T08:45:22;10.98;;;7.72;;
55065;SDS011;40964;42.114;24.220;2023-06-14T08:47:49;11.05;;;8.38;;
55065;SDS011;40964;42.114;24.220;2023-06-14T08:50:22;10.27;;;8.13;;
55065;SDS011;40964;42.114;24.220;2023-06-14T08:52:52;11.80;;;7.55;;
55065;SDS011;40964;42.114;24.220;2023-06-14T08:57:55;10.27;;;7.85;;
55065;SDS011;40964;42.114;24.220;2023-06-14T09:00:23;9.23;;;7.82;;
55065;SDS011;40964;42.114;24.220;2023-06-14T09:02:50;8.95;;;7.00;;
55065;SDS011;40964;42.114;24.220;2023-06-14T09:05:21;10.27;;;7.70;;
55065;SDS011;40964;42.114;24.220;2023-06-14T09:07:50;10.60;;;7.30;;
55065;SDS011;40964;42.114;24.220;2023-06-14T09:10:16;9.48;;;7.45;;
55065;SDS011;40964;42.114;24.220;2023-06-14T09:12:42;10.65;;;7.70;;
55065;SDS011;40964;42.114;24.220;2023-06-14T09:15:08;9.43;;;7.40;;
55065;SDS011;40964;42.114;24.220;2023-06-14T09:17:38;11.38;;;7.95;;
55065;SDS011;40964;42.114;24.220;2023-06-14T09:20:04;7.78;;;6.90;;
55065;SDS011;40964;42.114;24.220;2023-06-14T09:22:35;8.55;;;7.47;;
55065;SDS011;40964;42.114;24.220;2023-06-14T09:25:01;9.10;;;7.55;;
55065;SDS011;40964;42.114;24.220;2023-06-14T09:27:28;9.27;;;7.07;;
55065;SDS011;40964;42.114;24.220;2023-06-14T09:29:54;9.13;;;7.00;;
55065;SDS011;40964;42.114;24.220;2023-06-14T09:32:20;9.45;;;6.47;;
55065;SDS011;40964;42.114;24.220;2023-06-14T09:34:49;9.27;;;7.10;;
55065;SDS011;40964;42.114;24.220;2023-06-14T09:37:33;9.63;;;6.70;;
55065;SDS011;40964;42.114;24.220;2023-06-14T09:39:59;11.00;;;7.10;;
55065;SDS011;40964;42.114;24.220;2023-06-14T09:42:25;9.05;;;7.43;;
55065;SDS011;40964;42.114;24.220;2023-06-14T09:44:54;8.85;;;7.50;;
55065;SDS011;40964;42.114;24.220;2023-06-14T09:47:20;9.30;;;7.38;;
55065;SDS011;40964;42.114;24.220;2023-06-14T09:49:47;8.27;;;6.45;;
55065;SDS011;40964;42.114;24.220;2023-06-14T09:52:17;7.15;;;6.35;;
55065;SDS011;40964;42.114;24.220;2023-06-14T09:54:44;6.47;;;5.88;;
55065;SDS011;40964;42.114;24.220;2023-06-14T09:57:12;7.38;;;6.25;;
55065;SDS011;40964;42.114;24.220;2023-06-14T09:59:58;9.38;;;6.70;;
55065;SDS011;40964;42.114;24.220;2023-06-14T10:02:29;8.10;;;7.25;;
55065;SDS011;40964;42.114;24.220;2023-06-14T10:05:06;7.70;;;6.70;;
55065;SDS011;40964;42.114;24.220;2023-06-14T10:07:40;10.32;;;7.07;;
55065;SDS011;40964;42.114;24.220;2023-06-14T10:10:14;8.10;;;6.57;;
55065;SDS011;40964;42.114;24.220;2023-06-14T10:12:40;8.75;;;6.32;;
55065;SDS011;40964;42.114;24.220;2023-06-14T10:15:07;6.97;;;6.28;;
55065;SDS011;40964;42.114;24.220;2023-06-14T10:17:37;7.80;;;6.10;;
55065;SDS011;40964;42.114;24.220;2023-06-14T10:22:48;7.65;;;5.97;;
55065;SDS011;40964;42.114;24.220;2023-06-14T10:25:26;8.20;;;5.88;;
55065;SDS011;40964;42.114;24.220;2023-06-14T10:28:01;8.45;;;5.90;;
55065;SDS011;40964;42.114;24.220;2023-06-14T10:30:28;6.30;;;5.70;;
55065;SDS011;40964;42.114;24.220;2023-06-14T10:33:06;7.78;;;6.32;;
55065;SDS011;40964;42.114;24.220;2023-06-14T10:35:32;5.93;;;5.25;;
55065;SDS011;40964;42.114;24.220;2023-06-14T10:38:08;6.25;;;5.50;;
55065;SDS011;40964;42.114;24.220;2023-06-14T10:40:34;6.75;;;5.43;;
55065;SDS011;40964;42.114;24.220;2023-06-14T10:43:01;6.45;;;5.47;;
55065;SDS011;40964;42.114;24.220;2023-06-14T10:48:48;5.95;;;5.20;;
55065;SDS011;40964;42.114;24.220;2023-06-14T10:51:20;8.73;;;5.93;;
55065;SDS011;40964;42.114;24.220;2023-06-14T10:53:49;5.90;;;5.30;;
55065;SDS011;40964;42.114;24.220;2023-06-14T10:58:50;7.75;;;6.00;;
55065;SDS011;40964;42.114;24.220;2023-06-14T11:01:18;8.02;;;5.50;;
55065;SDS011;40964;42.114;24.220;2023-06-14T11:04:08;6.75;;;5.70;;
55065;SDS011;40964;42.114;24.220;2023-06-14T11:06:44;9.02;;;6.00;;
55065;SDS011;40964;42.114;24.220;2023-06-14T11:11:53;5.43;;;4.93;;
55065;SDS011;40964;42.114;24.220;2023-06-14T11:14:21;6.22;;;5.03;;
55065;SDS011;40964;42.114;24.220;2023-06-14T11:16:49;7.35;;;5.60;;
55065;SDS011;40964;42.114;24.220;2023-06-14T11:19:15;5.72;;;5.15;;
55065;SDS011;40964;42.114;24.220;2023-06-14T11:21:42;6.50;;;5.18;;
55065;SDS011;40964;42.114;24.220;2023-06-14T11:24:12;7.20;;;5.38;;
55065;SDS011;40964;42.114;24.220;2023-06-14T11:26:37;5.88;;;5.30;;
55065;SDS011;40964;42.114;24.220;2023-06-14T11:29:03;6.20;;;5.18;;
55065;SDS011;40964;42.114;24.220;2023-06-14T11:31:29;6.70;;;5.20;;
55065;SDS011;40964;42.114;24.220;2023-06-14T11:33:55;5.50;;;5.00;;
55065;SDS011;40964;42.114;24.220;2023-06-14T11:36:22;6.90;;;5.43;;
55065;SDS011;40964;42.114;24.220;2023-06-14T11:38:48;6.18;;;5.57;;
55065;SDS011;40964;42.114;24.220;2023-06-14T11:41:14;7.38;;;5.60;;
55065;SDS011;40964;42.114;24.220;2023-06-14T11:43:39;7.03;;;5.30;;
55065;SDS011;40964;42.114;24.220;2023-06-14T11:46:11;5.95;;;5.35;;
55065;SDS011;40964;42.114;24.220;2023-06-14T11:48:40;6.10;;;5.50;;
55065;SDS011;40964;42.114;24.220;2023-06-14T11:51:06;10.13;;;6.03;;
55065;SDS011;40964;42.114;24.220;2023-06-14T11:53:32;8.13;;;5.85;;
55065;SDS011;40964;42.114;24.220;2023-06-14T11:55:58;6.93;;;5.70;;
55065;SDS011;40964;42.114;24.220;2023-06-14T11:58:25;7.57;;;5.60;;
55065;SDS011;40964;42.114;24.220;2023-06-14T12:00:51;6.90;;;6.03;;
55065;SDS011;40964;42.114;24.220;2023-06-14T12:03:17;6.80;;;6.10;;
55065;SDS011;40964;42.114;24.220;2023-06-14T12:05:47;6.43;;;5.68;;
55065;SDS011;40964;42.114;24.220;2023-06-14T12:08:12;7.90;;;6.07;;
55065;SDS011;40964;42.114;24.220;2023-06-14T12:10:42;6.40;;;5.68;;
55065;SDS011;40964;42.114;24.220;2023-06-14T12:13:08;7.10;;;5.90;;
55065;SDS011;40964;42.114;24.220;2023-06-14T12:15:35;10.63;;;6.10;;
55065;SDS011;40964;42.114;24.220;2023-06-14T12:18:00;7.32;;;5.88;;
55065;SDS011;40964;42.114;24.220;2023-06-14T12:20:29;6.28;;;5.68;;
55065;SDS011;40964;42.114;24.220;2023-06-14T12:22:57;6.38;;;5.15;;
55065;SDS011;40964;42.114;24.220;2023-06-14T12:25:31;6.40;;;5.60;;
55065;SDS011;40964;42.114;24.220;2023-06-14T12:27:59;5.78;;;5.13;;
55065;SDS011;40964;42.114;24.220;2023-06-14T12:30:30;8.43;;;6.18;;
55065;SDS011;40964;42.114;24.220;2023-06-14T12:32:55;8.88;;;6.63;;
55065;SDS011;40964;42.114;24.220;2023-06-14T12:35:21;8.32;;;6.10;;
55065;SDS011;40964;42.114;24.220;2023-06-14T12:37:46;7.72;;;6.72;;
55065;SDS011;40964;42.114;24.220;2023-06-14T12:40:12;8.07;;;6.70;;
55065;SDS011;40964;42.114;24.220;2023-06-14T12:42:38;7.25;;;6.00;;
55065;SDS011;40964;42.114;24.220;2023-06-14T12:45:04;8.43;;;6.10;;
55065;SDS011;40964;42.114;24.220;2023-06-14T12:47:30;7.20;;;6.50;;
55065;SDS011;40964;42.114;24.220;2023-06-14T12:49:55;10.00;;;7.10;;
55065;SDS011;40964;42.114;24.220;2023-06-14T12:52:21;8.85;;;6.50;;
55065;SDS011;40964;42.114;24.220;2023-06-14T12:54:46;10.68;;;6.47;;
55065;SDS011;40964;42.114;24.220;2023-06-14T12:57:12;9.90;;;6.88;;
55065;SDS011;40964;42.114;24.220;2023-06-14T12:59:37;8.18;;;6.15;;
55065;SDS011;40964;42.114;24.220;2023-06-14T13:02:17;8.55;;;6.25;;
55065;SDS011;40964;42.114;24.220;2023-06-14T13:04:47;7.00;;;6.30;;
55065;SDS011;40964;42.114;24.220;2023-06-14T13:07:12;9.07;;;6.18;;
55065;SDS011;40964;42.114;24.220;2023-06-14T13:09:40;6.80;;;5.93;;
55065;SDS011;40964;42.114;24.220;2023-06-14T13:12:05;8.18;;;5.63;;
55065;SDS011;40964;42.114;24.220;2023-06-14T13:14:31;10.68;;;6.32;;
55065;SDS011;40964;42.114;24.220;2023-06-14T13:16:57;9.38;;;5.93;;
55065;SDS011;40964;42.114;24.220;2023-06-14T13:19:23;8.38;;;6.53;;
55065;SDS011;40964;42.114;24.220;2023-06-14T13:21:48;6.50;;;5.80;;
55065;SDS011;40964;42.114;24.220;2023-06-14T13:24:14;7.85;;;6.22;;
55065;SDS011;40964;42.114;24.220;2023-06-14T13:26:39;7.57;;;5.72;;
55065;SDS011;40964;42.114;24.220;2023-06-14T13:29:05;8.02;;;6.47;;
55065;SDS011;40964;42.114;24.220;2023-06-14T13:31:30;7.22;;;6.10;;
55065;SDS011;40964;42.114;24.220;2023-06-14T13:33:56;10.70;;;6.05;;
55065;SDS011;40964;42.114;24.220;2023-06-14T13:36:21;7.22;;;6.53;;
55065;SDS011;40964;42.114;24.220;2023-06-14T13:38:47;7.78;;;6.40;;
55065;SDS011;40964;42.114;24.220;2023-06-14T13:41:12;8.38;;;7.10;;
55065;SDS011;40964;42.114;24.220;2023-06-14T13:43:38;8.02;;;7.20;;
55065;SDS011;40964;42.114;24.220;2023-06-14T13:46:03;11.70;;;7.28;;
55065;SDS011;40964;42.114;24.220;2023-06-14T13:48:29;9.75;;;7.40;;
55065;SDS011;40964;42.114;24.220;2023-06-14T13:50:54;8.75;;;7.35;;
55065;SDS011;40964;42.114;24.220;2023-06-14T13:53:20;7.75;;;6.85;;
55065;SDS011;40964;42.114;24.220;2023-06-14T13:55:46;9.73;;;7.35;;
55065;SDS011;40964;42.114;24.220;2023-06-14T13:58:11;8.50;;;7.60;;
55065;SDS011;40964;42.114;24.220;2023-06-14T14:00:37;9.93;;;7.57;;
55065;SDS011;40964;42.114;24.220;2023-06-14T14:03:05;8.95;;;7.53;;
55065;SDS011;40964;42.114;24.220;2023-06-14T14:05:31;9.13;;;7.90;;
55065;SDS011;40964;42.114;24.220;2023-06-14T14:07:56;9.40;;;7.82;;
55065;SDS011;40964;42.114;24.220;2023-06-14T14:10:26;10.32;;;8.45;;
55065;SDS011;40964;42.114;24.220;2023-06-14T14:12:52;10.40;;;8.45;;
55065;SDS011;40964;42.114;24.220;2023-06-14T14:15:18;11.43;;;8.27;;
55065;SDS011;40964;42.114;24.220;2023-06-14T14:17:43;8.85;;;7.97;;
55065;SDS011;40964;42.114;24.220;2023-06-14T14:20:09;9.18;;;8.05;;
55065;SDS011;40964;42.114;24.220;2023-06-14T14:22:37;10.63;;;7.85;;
55065;SDS011;40964;42.114;24.220;2023-06-14T14:25:03;11.43;;;8.07;;
55065;SDS011;40964;42.114;24.220;2023-06-14T14:27:28;11.90;;;7.75;;
55065;SDS011;40964;42.114;24.220;2023-06-14T14:29:54;17.08;;;7.97;;
55065;SDS011;40964;42.114;24.220;2023-06-14T14:32:19;9.90;;;7.60;;
55065;SDS011;40964;42.114;24.220;2023-06-14T14:34:45;7.35;;;6.65;;
55065;SDS011;40964;42.114;24.220;2023-06-14T14:37:10;8.52;;;7.50;;
55065;SDS011;40964;42.114;24.220;2023-06-14T14:39:36;10.00;;;7.50;;
55065;SDS011;40964;42.114;24.220;2023-06-14T14:42:02;8.30;;;7.45;;
55065;SDS011;40964;42.114;24.220;2023-06-14T14:44:27;9.27;;;7.38;;
55065;SDS011;40964;42.114;24.220;2023-06-14T14:46:53;10.73;;;7.03;;
55065;SDS011;40964;42.114;24.220;2023-06-14T14:49:18;8.35;;;6.90;;